createdAt,value
2018-10-09T00:02:07.998Z,91.60
2018-10-09T00:04:36.248Z,91.20
2018-10-09T00:07:04.427Z,91.20
2018-10-09T00:09:32.562Z,91.20
2018-10-09T00:12:00.714Z,91.20
2018-10-09T00:14:28.855Z,91.20
2018-10-09T00:16:56.970Z,91.20
2018-10-09T00:19:25.109Z,91.20
2018-10-09T00:21:53.235Z,91.00
2018-10-09T00:24:21.357Z,91.30
2018-10-09T00:26:49.503Z,91.30
2018-10-09T00:29:17.621Z,91.60
2018-10-09T00:31:45.773Z,91.70
2018-10-09T00:34:13.924Z,91.80
2018-10-09T00:36:42.043Z,91.90
2018-10-09T00:39:11.094Z,92.20
2018-10-09T00:41:39.244Z,92.30
2018-10-09T00:44:07.414Z,92.60
2018-10-09T00:46:35.610Z,92.80
2018-10-09T00:49:03.737Z,92.80
2018-10-09T00:51:31.875Z,93.00
2018-10-09T00:54:00.032Z,93.10
2018-10-09T00:56:28.161Z,93.10
2018-10-09T00:58:56.314Z,93.40
2018-10-09T01:01:35.406Z,93.30
2018-10-09T01:04:03.532Z,93.40
2018-10-09T01:06:31.675Z,93.30
2018-10-09T01:08:59.852Z,93.20
2018-10-09T01:11:27.919Z,93.20
2018-10-09T01:13:56.062Z,93.20
2018-10-09T01:16:24.176Z,93.10
2018-10-09T01:18:52.324Z,93.20
2018-10-09T01:21:20.463Z,93.20
2018-10-09T01:23:48.599Z,93.30
2018-10-09T01:26:16.726Z,93.20
2018-10-09T01:28:44.871Z,93.40
2018-10-09T01:31:13.008Z,93.20
2018-10-09T01:33:41.171Z,93.40
2018-10-09T01:36:09.284Z,93.50
2018-10-09T01:38:37.427Z,93.60
2018-10-09T01:41:05.590Z,93.60
2018-10-09T01:43:33.730Z,93.50
2018-10-09T01:46:01.853Z,93.60
2018-10-09T01:48:29.975Z,93.80
2018-10-09T01:50:58.110Z,93.90
2018-10-09T01:53:26.250Z,93.80
2018-10-09T01:55:54.382Z,93.90
2018-10-09T01:58:22.499Z,93.90
2018-10-09T02:00:50.669Z,93.80
2018-10-09T02:03:18.831Z,93.80
2018-10-09T02:05:46.981Z,93.70
2018-10-09T02:08:15.236Z,93.70
2018-10-09T02:10:43.366Z,93.70
2018-10-09T02:13:11.520Z,93.80
2018-10-09T02:15:39.652Z,93.80
2018-10-09T02:18:07.899Z,93.80
2018-10-09T02:20:36.039Z,93.90
2018-10-09T02:23:04.182Z,93.70
2018-10-09T02:25:32.303Z,93.70
2018-10-09T02:28:00.447Z,93.70
2018-10-09T02:30:28.601Z,93.60
2018-10-09T02:32:56.715Z,93.60
2018-10-09T02:35:24.869Z,93.60
2018-10-09T02:37:53.016Z,93.70
2018-10-09T02:40:21.139Z,93.80
2018-10-09T02:42:49.258Z,93.80
2018-10-09T02:45:17.399Z,93.90
2018-10-09T02:47:45.545Z,93.80
2018-10-09T02:50:13.681Z,93.80
2018-10-09T02:52:41.894Z,93.70
2018-10-09T02:55:10.054Z,93.80
2018-10-09T02:57:38.202Z,93.80
2018-10-09T03:00:07.274Z,93.80
2018-10-09T03:02:35.418Z,93.70
2018-10-09T03:05:03.833Z,93.70
2018-10-09T03:07:31.979Z,93.70
2018-10-09T03:10:00.120Z,93.80
2018-10-09T03:12:28.267Z,93.70
2018-10-09T03:14:56.524Z,93.80
2018-10-09T03:17:24.718Z,93.70
2018-10-09T03:19:52.835Z,93.80
2018-10-09T03:22:20.983Z,93.80
2018-10-09T03:24:49.144Z,93.70
2018-10-09T03:27:17.276Z,93.70
2018-10-09T03:29:45.418Z,93.70
2018-10-09T03:32:14.483Z,93.70
2018-10-09T03:34:42.606Z,93.60
2018-10-09T03:37:10.767Z,93.60
2018-10-09T03:39:38.923Z,93.60
2018-10-09T03:42:07.119Z,93.70
2018-10-09T03:44:35.246Z,93.60
2018-10-09T03:47:03.376Z,93.70
2018-10-09T03:49:31.523Z,93.80
2018-10-09T03:51:59.688Z,93.80
2018-10-09T03:54:27.822Z,93.90
2018-10-09T03:56:55.959Z,93.90
2018-10-09T03:59:24.085Z,93.90
2018-10-09T04:01:52.235Z,93.90
2018-10-09T04:04:20.382Z,93.90
2018-10-09T04:06:48.522Z,94.00
2018-10-09T04:09:16.711Z,94.00
2018-10-09T04:11:44.862Z,94.00
2018-10-09T04:14:12.981Z,94.00
2018-10-09T04:16:41.138Z,94.00
2018-10-09T04:19:09.407Z,94.10
2018-10-09T04:21:37.571Z,94.10
2018-10-09T04:24:05.759Z,94.20
2018-10-09T04:26:33.972Z,94.20
2018-10-09T04:29:02.090Z,94.20
2018-10-09T04:31:30.279Z,94.30
2018-10-09T04:33:58.414Z,94.20
2018-10-09T04:36:26.558Z,94.30
2018-10-09T04:38:54.683Z,94.40
2018-10-09T04:41:22.839Z,94.40
2018-10-09T04:43:50.968Z,94.80
2018-10-09T04:46:19.186Z,94.40
2018-10-09T04:48:47.303Z,94.40
2018-10-09T04:51:15.458Z,94.20
2018-10-09T04:53:43.740Z,94.20
2018-10-09T04:56:11.908Z,94.30
2018-10-09T04:58:40.043Z,94.20
2018-10-09T05:01:08.387Z,94.30
2018-10-09T05:03:36.563Z,94.30
2018-10-09T05:06:04.736Z,94.30
2018-10-09T05:08:32.877Z,94.30
2018-10-09T05:11:01.066Z,94.40
2018-10-09T05:13:29.209Z,94.50
2018-10-09T05:15:57.356Z,94.40
2018-10-09T05:18:25.631Z,94.40
2018-10-09T05:20:53.779Z,94.50
2018-10-09T05:23:21.952Z,94.60
2018-10-09T05:25:50.033Z,94.60
2018-10-09T05:28:18.182Z,94.50
2018-10-09T05:30:46.334Z,94.50
2018-10-09T05:33:14.474Z,94.50
2018-10-09T05:35:42.626Z,94.50
2018-10-09T05:38:11.085Z,94.40
2018-10-09T05:40:39.274Z,94.40
2018-10-09T05:43:07.490Z,94.40
2018-10-09T05:45:39.147Z,94.50
2018-10-09T05:48:08.055Z,94.40
2018-10-09T05:50:36.271Z,94.40
2018-10-09T05:53:04.816Z,94.40
2018-10-09T05:55:33.066Z,94.50
2018-10-09T05:58:01.477Z,94.40
2018-10-09T06:00:30.341Z,94.20
2018-10-09T06:02:58.731Z,94.00
2018-10-09T06:05:27.003Z,94.10
2018-10-09T06:07:55.175Z,94.10
2018-10-09T06:10:23.323Z,94.30
2018-10-09T06:12:51.494Z,94.50
2018-10-09T06:15:19.650Z,94.20
2018-10-09T06:17:47.762Z,94.20
2018-10-09T06:20:15.909Z,94.20
2018-10-09T06:22:44.059Z,94.20
2018-10-09T06:25:12.167Z,93.90
2018-10-09T06:27:40.431Z,93.80
2018-10-09T06:30:08.564Z,93.80
2018-10-09T06:32:36.703Z,93.70
2018-10-09T06:35:05.182Z,93.80
2018-10-09T06:37:33.318Z,93.70
2018-10-09T06:40:01.461Z,93.70
2018-10-09T06:42:29.605Z,93.80
2018-10-09T06:44:57.779Z,94.10
2018-10-09T06:47:26.316Z,93.90
2018-10-09T06:49:54.419Z,93.60
2018-10-09T06:52:22.626Z,93.50
2018-10-09T06:54:50.779Z,93.80
2018-10-09T06:57:18.922Z,93.50
2018-10-09T06:59:48.742Z,93.40
2018-10-09T07:02:16.939Z,93.50
2018-10-09T07:04:45.085Z,93.40
2018-10-09T07:07:13.225Z,93.40
2018-10-09T07:09:41.382Z,93.30
2018-10-09T07:12:09.541Z,93.00
2018-10-09T07:14:37.704Z,92.80
2018-10-09T07:17:06.228Z,92.70
2018-10-09T07:19:34.587Z,92.60
2018-10-09T07:22:02.869Z,92.50
2018-10-09T07:24:31.047Z,92.60
2018-10-09T07:26:59.253Z,92.40
2018-10-09T07:29:27.424Z,92.40
2018-10-09T07:31:55.547Z,92.20
2018-10-09T07:34:23.707Z,92.10
2018-10-09T07:36:51.965Z,92.00
2018-10-09T07:39:20.103Z,91.90
2018-10-09T07:41:48.239Z,91.50
2018-10-09T07:44:16.482Z,91.40
2018-10-09T07:46:44.567Z,91.50
2018-10-09T07:49:12.707Z,91.40
2018-10-09T07:51:40.844Z,91.40
2018-10-09T07:54:08.973Z,91.30
2018-10-09T07:56:37.115Z,91.50
2018-10-09T07:59:05.272Z,91.70
2018-10-09T08:01:33.514Z,91.10
2018-10-09T08:04:01.718Z,91.00
2018-10-09T08:06:30.033Z,90.70
2018-10-09T08:08:58.178Z,90.50
2018-10-09T08:11:26.356Z,90.80
2018-10-09T08:13:54.499Z,90.30
2018-10-09T08:16:22.718Z,90.30
2018-10-09T08:18:50.827Z,90.50
2018-10-09T08:21:18.983Z,89.80
2018-10-09T08:23:47.129Z,90.00
2018-10-09T08:26:15.267Z,89.80
2018-10-09T08:28:43.423Z,89.70
2018-10-09T08:31:11.641Z,89.40
2018-10-09T08:33:39.820Z,89.90
2018-10-09T08:36:07.962Z,88.80
2018-10-09T08:38:36.449Z,88.00
2018-10-09T08:41:04.625Z,87.60
2018-10-09T08:43:32.864Z,87.50
2018-10-09T08:46:01.023Z,87.80
2018-10-09T08:48:29.158Z,87.40
2018-10-09T08:50:57.355Z,87.70
2018-10-09T08:53:25.509Z,86.70
2018-10-09T08:55:53.650Z,86.30
2018-10-09T08:58:21.834Z,85.80
2018-10-09T09:00:49.999Z,84.70
2018-10-09T09:03:38.314Z,84.00
2018-10-09T09:06:06.419Z,83.90
2018-10-09T09:08:34.579Z,82.70
2018-10-09T09:11:02.752Z,81.70
2018-10-09T09:13:30.936Z,80.90
2018-10-09T09:15:59.106Z,80.80
2018-10-09T09:18:27.275Z,80.10
2018-10-09T09:20:55.529Z,80.00
2018-10-09T09:23:23.615Z,80.10
2018-10-09T09:25:51.771Z,80.50
2018-10-09T09:28:19.954Z,80.80
2018-10-09T09:30:48.148Z,81.10
2018-10-09T09:33:16.301Z,81.40
2018-10-09T09:35:44.435Z,81.70
2018-10-09T09:38:12.617Z,81.60
2018-10-09T09:40:40.821Z,81.40
2018-10-09T09:43:08.978Z,81.10
2018-10-09T09:45:37.195Z,81.10
2018-10-09T09:48:05.504Z,80.80
2018-10-09T09:50:33.683Z,80.30
2018-10-09T09:53:01.877Z,80.00
2018-10-09T09:55:30.069Z,79.40
2018-10-09T09:57:58.427Z,79.30
2018-10-09T10:00:32.011Z,78.90
2018-10-09T10:03:00.158Z,77.60
2018-10-09T10:05:28.347Z,77.00
2018-10-09T10:07:56.579Z,75.70
2018-10-09T10:10:24.751Z,75.40
2018-10-09T10:12:52.972Z,75.20
2018-10-09T10:15:21.228Z,73.50
2018-10-09T10:17:49.488Z,72.80
2018-10-09T10:20:17.654Z,71.50
2018-10-09T10:22:45.812Z,70.80
2018-10-09T10:25:13.976Z,70.30
2018-10-09T10:27:42.134Z,70.00
2018-10-09T10:30:10.495Z,69.80
2018-10-09T10:32:38.636Z,68.60
2018-10-09T10:35:07.427Z,67.90
2018-10-09T10:37:35.605Z,67.10
2018-10-09T10:40:03.774Z,66.20
2018-10-09T10:42:31.936Z,66.40
2018-10-09T10:45:00.111Z,65.30
2018-10-09T10:47:28.364Z,64.70
2018-10-09T10:49:56.455Z,65.60
2018-10-09T10:52:24.770Z,64.90
2018-10-09T10:54:52.964Z,64.70
2018-10-09T10:57:21.098Z,64.80
2018-10-09T10:59:49.275Z,64.90
2018-10-09T11:02:17.427Z,64.90
2018-10-09T11:04:45.592Z,65.10
2018-10-09T11:07:13.742Z,65.10
2018-10-09T11:09:41.919Z,65.10
2018-10-09T11:12:10.076Z,63.90
2018-10-09T11:14:38.343Z,63.60
2018-10-09T11:17:06.436Z,62.50
2018-10-09T11:19:34.623Z,62.10
2018-10-09T11:22:02.771Z,61.20
2018-10-09T11:24:30.920Z,60.00
2018-10-09T11:26:59.086Z,58.70
2018-10-09T11:29:27.259Z,58.60
2018-10-09T11:31:55.398Z,58.60
2018-10-09T11:34:23.614Z,57.90
2018-10-09T11:36:51.804Z,57.40
2018-10-09T11:39:19.996Z,56.60
2018-10-09T11:41:48.207Z,56.40
2018-10-09T11:44:16.361Z,56.30
2018-10-09T11:46:44.524Z,55.90
2018-10-09T11:49:12.688Z,56.50
2018-10-09T11:51:40.865Z,55.70
2018-10-09T11:54:09.089Z,56.00
2018-10-09T11:56:37.239Z,56.50
2018-10-09T11:59:05.513Z,56.80
2018-10-09T12:01:33.588Z,56.70
2018-10-09T12:04:01.740Z,56.40
2018-10-09T12:06:29.908Z,56.00
2018-10-09T12:08:58.072Z,56.10
2018-10-09T12:11:26.256Z,55.80
2018-10-09T12:13:54.387Z,55.20
2018-10-09T12:16:22.531Z,54.90
2018-10-09T12:18:50.729Z,54.20
2018-10-09T12:21:18.908Z,53.90
2018-10-09T12:23:47.072Z,53.00
2018-10-09T12:26:15.227Z,51.40
2018-10-09T12:28:43.407Z,50.50
2018-10-09T12:31:11.563Z,49.10
2018-10-09T12:33:39.699Z,47.70
2018-10-09T12:36:07.918Z,47.60
2018-10-09T12:38:36.033Z,46.50
2018-10-09T12:41:04.182Z,46.00
2018-10-09T12:43:32.352Z,45.80
2018-10-09T12:46:00.481Z,45.70
2018-10-09T12:48:28.630Z,45.80
2018-10-09T12:50:56.773Z,46.30
2018-10-09T12:53:24.902Z,47.00
2018-10-09T12:55:53.015Z,48.60
2018-10-09T12:58:21.187Z,49.50
2018-10-09T13:00:49.431Z,50.40
2018-10-09T13:03:17.575Z,51.30
2018-10-09T13:05:45.689Z,52.00
2018-10-09T13:08:13.835Z,53.20
2018-10-09T13:10:41.980Z,54.80
2018-10-09T13:13:10.143Z,56.00
2018-10-09T13:15:38.276Z,56.50
2018-10-09T13:18:06.420Z,56.10
2018-10-09T13:20:34.575Z,55.90
2018-10-09T13:23:02.686Z,56.00
2018-10-09T13:25:30.814Z,55.60
2018-10-09T13:27:58.945Z,55.30
2018-10-09T13:30:27.106Z,55.80
2018-10-09T13:32:55.272Z,53.90
2018-10-09T13:35:23.441Z,53.70
2018-10-09T13:37:51.586Z,52.60
2018-10-09T13:40:19.735Z,52.20
2018-10-09T13:42:47.850Z,51.80
2018-10-09T13:45:15.977Z,51.20
2018-10-09T13:47:44.115Z,49.40
2018-10-09T13:50:12.291Z,47.60
2018-10-09T13:52:40.403Z,45.40
2018-10-09T13:55:08.506Z,44.30
2018-10-09T13:57:36.854Z,43.70
2018-10-09T14:00:05.023Z,43.80
2018-10-09T14:02:33.190Z,41.90
2018-10-09T14:05:01.325Z,40.20
2018-10-09T14:07:29.482Z,39.50
2018-10-09T14:09:57.637Z,39.40
2018-10-09T14:12:25.729Z,38.50
2018-10-09T14:14:53.879Z,39.10
2018-10-09T14:17:21.992Z,39.70
2018-10-09T14:19:50.182Z,39.00
2018-10-09T14:22:18.383Z,38.60
2018-10-09T14:24:46.507Z,37.60
2018-10-09T14:27:14.682Z,37.70
2018-10-09T14:29:42.815Z,39.00
2018-10-09T14:32:10.946Z,40.10
2018-10-09T14:34:39.064Z,41.40
2018-10-09T14:37:07.622Z,42.30
2018-10-09T14:39:35.753Z,43.30
2018-10-09T14:42:03.882Z,43.70
2018-10-09T14:44:32.003Z,44.50
2018-10-09T14:47:00.137Z,45.70
2018-10-09T14:49:28.269Z,46.80
2018-10-09T14:51:56.378Z,46.90
2018-10-09T14:54:24.558Z,48.20
2018-10-09T14:56:52.696Z,48.60
2018-10-09T14:59:20.929Z,49.10
2018-10-09T15:01:49.074Z,49.40
2018-10-09T15:04:17.306Z,49.60
2018-10-09T15:06:45.430Z,50.00
2018-10-09T15:09:14.234Z,50.50
2018-10-09T15:11:43.032Z,51.40
2018-10-09T15:14:11.311Z,51.80
2018-10-09T15:16:39.689Z,52.10
2018-10-09T15:19:08.206Z,51.60
2018-10-09T15:21:36.384Z,51.20
2018-10-09T15:24:04.463Z,50.60
2018-10-09T15:26:32.617Z,50.60
2018-10-09T15:29:00.846Z,51.40
2018-10-09T15:31:28.911Z,51.90
2018-10-09T15:33:57.050Z,52.50
2018-10-09T15:36:25.235Z,53.10
2018-10-09T15:38:53.365Z,53.50
2018-10-09T15:41:21.509Z,53.90
2018-10-09T15:43:49.596Z,54.40
2018-10-09T15:46:17.716Z,54.60
2018-10-09T15:48:45.834Z,55.00
2018-10-09T15:51:13.930Z,55.50
2018-10-09T15:53:42.126Z,55.70
2018-10-09T15:56:10.278Z,55.60
2018-10-09T15:58:38.398Z,56.20
2018-10-09T16:01:06.558Z,56.40
2018-10-09T16:03:34.682Z,56.90
2018-10-09T16:06:02.860Z,57.40
2018-10-09T16:08:31.047Z,58.00
2018-10-09T16:10:59.154Z,58.40
2018-10-09T16:13:27.298Z,58.90
2018-10-09T16:15:55.406Z,59.40
2018-10-09T16:18:23.534Z,60.00
2018-10-09T16:20:51.771Z,60.50
2018-10-09T16:23:19.734Z,61.20
2018-10-09T16:25:47.842Z,62.00
2018-10-09T16:28:15.954Z,62.70
2018-10-09T16:30:44.072Z,64.00
2018-10-09T16:33:12.181Z,64.00
2018-10-09T16:35:40.282Z,64.50
2018-10-09T16:38:08.399Z,65.20
2018-10-09T16:40:36.651Z,65.80
2018-10-09T16:43:04.874Z,66.50
2018-10-09T16:45:33.045Z,67.10
2018-10-09T16:48:01.162Z,67.60
2018-10-09T16:50:29.254Z,68.20
2018-10-09T16:52:57.412Z,68.90
2018-10-09T16:55:25.538Z,69.70
2018-10-09T16:57:53.639Z,70.40
2018-10-09T17:00:21.777Z,70.80
2018-10-09T17:02:49.848Z,71.40
2018-10-09T17:05:17.937Z,72.20
2018-10-09T17:07:46.052Z,72.80
2018-10-09T17:10:14.159Z,73.90
2018-10-09T17:12:42.274Z,73.50
2018-10-09T17:15:10.395Z,74.20
2018-10-09T17:17:38.521Z,74.80
2018-10-09T17:20:07.589Z,75.40
2018-10-09T17:22:35.724Z,75.60
2018-10-09T17:25:04.047Z,75.80
2018-10-09T17:27:32.163Z,76.40
2018-10-09T17:30:00.296Z,77.10
2018-10-09T17:32:28.437Z,77.60
2018-10-09T17:34:56.542Z,78.00
2018-10-09T17:37:24.662Z,78.20
2018-10-09T17:39:52.779Z,78.60
2018-10-09T17:42:20.956Z,79.00
2018-10-09T17:44:49.029Z,79.50
2018-10-09T17:47:17.154Z,80.10
2018-10-09T17:49:45.257Z,80.80
2018-10-09T17:52:13.358Z,81.10
2018-10-09T17:54:41.500Z,82.10
2018-10-09T17:57:09.609Z,81.70
2018-10-09T17:59:37.707Z,82.20
2018-10-09T18:02:05.849Z,82.70
2018-10-09T18:04:34.266Z,83.10
2018-10-09T18:07:02.388Z,83.40
2018-10-09T18:09:30.546Z,83.60
2018-10-09T18:11:58.756Z,84.20
2018-10-09T18:14:26.912Z,84.60
2018-10-09T18:16:54.975Z,84.90
2018-10-09T18:19:23.295Z,85.30
2018-10-09T18:21:51.846Z,85.60
2018-10-09T18:24:19.943Z,85.60
2018-10-09T18:26:48.313Z,86.40
2018-10-09T18:29:16.434Z,86.50
2018-10-09T18:31:44.537Z,86.80
2018-10-09T18:34:12.711Z,87.00
2018-10-09T18:36:40.822Z,87.20
2018-10-09T18:39:12.690Z,87.40
2018-10-09T18:41:41.156Z,87.50
2018-10-09T18:44:09.139Z,87.80
2018-10-09T18:46:37.258Z,87.80
2018-10-09T18:49:05.548Z,87.90
2018-10-09T18:51:33.998Z,87.90
2018-10-09T18:54:02.034Z,87.90
2018-10-09T18:56:30.171Z,88.10
2018-10-09T18:58:58.701Z,88.00
2018-10-09T19:01:26.820Z,88.20
2018-10-09T19:03:55.094Z,88.30
2018-10-09T19:06:23.326Z,88.40
2018-10-09T19:08:51.609Z,88.80
2018-10-09T19:11:23.042Z,89.10
2018-10-09T19:13:51.461Z,88.90
2018-10-09T19:16:19.651Z,88.90
2018-10-09T19:18:47.781Z,89.00
2018-10-09T19:21:15.901Z,89.30
2018-10-09T19:23:44.270Z,89.50
2018-10-09T19:26:12.400Z,89.60
2018-10-09T19:28:40.742Z,89.70
2018-10-09T19:31:09.073Z,90.20
2018-10-09T19:33:37.383Z,90.20
2018-10-09T19:36:05.511Z,90.30
2018-10-09T19:38:33.766Z,90.60
2018-10-09T19:41:02.074Z,90.40
2018-10-09T19:43:30.203Z,90.50
2018-10-09T19:45:59.380Z,90.60
2018-10-09T19:48:27.562Z,90.70
2018-10-09T19:50:56.599Z,90.70
2018-10-09T19:53:25.376Z,91.20
2018-10-09T19:55:54.326Z,90.90
2018-10-09T19:58:23.265Z,91.00
2018-10-09T20:00:52.311Z,91.00
2018-10-09T20:03:21.161Z,91.10
2018-10-09T20:05:50.050Z,91.10
2018-10-09T20:08:18.879Z,91.20
2018-10-09T20:10:47.988Z,91.40
2018-10-09T20:13:16.878Z,91.50
2018-10-09T20:15:45.939Z,91.50
2018-10-09T20:18:14.916Z,91.50
2018-10-09T20:20:43.931Z,91.40
2018-10-09T20:23:12.979Z,91.60
2018-10-09T20:25:41.930Z,91.50
2018-10-09T20:28:10.853Z,91.60
2018-10-09T20:30:40.037Z,91.80
2018-10-09T20:33:08.935Z,91.90
2018-10-09T20:35:37.901Z,91.90
2018-10-09T20:38:06.984Z,92.20
2018-10-09T20:40:36.010Z,92.40
2018-10-09T20:43:05.131Z,92.40
2018-10-09T20:45:34.360Z,92.30
2018-10-09T20:48:03.122Z,92.30
2018-10-09T20:50:32.035Z,92.40
2018-10-09T20:53:00.931Z,92.60
2018-10-09T20:55:30.444Z,92.60
2018-10-09T20:57:59.962Z,92.70
2018-10-09T21:00:28.782Z,92.70
2018-10-09T21:02:57.706Z,92.80
2018-10-09T21:05:26.698Z,92.70
2018-10-09T21:07:56.003Z,92.80
2018-10-09T21:10:25.025Z,92.90
2018-10-09T21:12:53.194Z,93.10
2018-10-09T21:15:21.446Z,93.20
2018-10-09T21:17:49.699Z,93.10
2018-10-09T21:20:17.763Z,93.20
2018-10-09T21:22:45.919Z,93.20
2018-10-09T21:25:14.030Z,93.10
2018-10-09T21:27:42.349Z,93.30
2018-10-09T21:30:10.473Z,93.30
2018-10-09T21:32:38.585Z,93.30
2018-10-09T21:35:07.442Z,93.30
2018-10-09T21:37:35.582Z,93.20
2018-10-09T21:40:03.704Z,93.30
2018-10-09T21:42:31.853Z,93.40
2018-10-09T21:44:59.982Z,93.50
2018-10-09T21:47:28.191Z,93.50
2018-10-09T21:49:56.311Z,93.40
2018-10-09T21:52:24.438Z,93.50
2018-10-09T21:54:52.558Z,93.50
2018-10-09T21:57:20.710Z,93.30
2018-10-09T21:59:48.842Z,93.30
2018-10-09T22:02:17.028Z,93.50
2018-10-09T22:04:45.146Z,93.80
2018-10-09T22:07:16.373Z,93.80
2018-10-09T22:09:44.523Z,93.70
2018-10-09T22:12:12.783Z,93.70
2018-10-09T22:14:40.930Z,94.00
2018-10-09T22:17:09.074Z,94.00
2018-10-09T22:19:37.234Z,94.10
2018-10-09T22:22:05.358Z,94.10
2018-10-09T22:24:33.596Z,94.00
2018-10-09T22:27:01.574Z,93.80
2018-10-09T22:29:29.673Z,94.10
2018-10-09T22:31:57.791Z,93.80
2018-10-09T22:34:25.931Z,93.70
2018-10-09T22:36:54.080Z,93.50
2018-10-09T22:39:22.191Z,93.50
2018-10-09T22:41:50.329Z,93.40
2018-10-09T22:44:18.540Z,93.60
2018-10-09T22:46:46.646Z,93.80
2018-10-09T22:49:14.737Z,93.80
2018-10-09T22:51:42.878Z,93.70
2018-10-09T22:54:11.009Z,93.60
2018-10-09T22:56:39.162Z,93.60
2018-10-09T22:59:07.295Z,93.80
2018-10-09T23:01:35.415Z,93.90
2018-10-09T23:04:03.600Z,94.00
2018-10-09T23:06:31.725Z,94.00
2018-10-09T23:08:59.845Z,94.10
2018-10-09T23:11:27.976Z,94.10
2018-10-09T23:13:56.122Z,94.00
2018-10-09T23:16:24.278Z,94.10
2018-10-09T23:18:52.476Z,94.20
2018-10-09T23:21:20.589Z,94.10
2018-10-09T23:23:48.690Z,94.10
2018-10-09T23:26:16.832Z,94.00
2018-10-09T23:28:44.987Z,94.10
2018-10-09T23:31:13.132Z,94.10
2018-10-09T23:33:41.223Z,94.20
2018-10-09T23:36:09.338Z,94.30
2018-10-09T23:38:37.453Z,94.30
2018-10-09T23:41:05.918Z,94.30
2018-10-09T23:43:34.194Z,94.30
2018-10-09T23:46:02.323Z,94.40
2018-10-09T23:48:30.439Z,94.40
2018-10-09T23:50:58.554Z,94.40
2018-10-09T23:53:26.675Z,94.40
2018-10-09T23:55:54.788Z,94.50
2018-10-09T23:58:22.895Z,94.60
